sensor_id;sensor_type;location;lat;lon;timestamp;P1;durP1;ratioP1;P2;durP2;ratioP2
27365;SDS011;14837;57.148;-2.144;2022-12-16T00:01:20;8.23;;;1.58;;
27365;SDS011;14837;57.148;-2.144;2022-12-16T00:03:49;4.68;;;1.25;;
27365;SDS011;14837;57.148;-2.144;2022-12-16T00:06:25;6.55;;;1.20;;
27365;SDS011;14837;57.148;-2.144;2022-12-16T00:08:52;3.20;;;1.20;;
27365;SDS011;14837;57.148;-2.144;2022-12-16T00:11:20;2.85;;;2.00;;
27365;SDS011;14837;57.148;-2.144;2022-12-16T00:13:46;3.50;;;1.63;;
27365;SDS011;14837;57.148;-2.144;2022-12-16T00:16:14;8.60;;;2.03;;
27365;SDS011;14837;57.148;-2.144;2022-12-16T00:18:41;3.08;;;1.55;;
27365;SDS011;14837;57.148;-2.144;2022-12-16T00:21:08;4.78;;;1.77;;
27365;SDS011;14837;57.148;-2.144;2022-12-16T00:23:35;3.90;;;1.45;;
27365;SDS011;14837;57.148;-2.144;2022-12-16T00:26:04;3.45;;;1.67;;
27365;SDS011;14837;57.148;-2.144;2022-12-16T00:28:31;1.00;;;0.77;;
27365;SDS011;14837;57.148;-2.144;2022-12-16T00:30:57;3.20;;;1.35;;
27365;SDS011;14837;57.148;-2.144;2022-12-16T00:33:25;3.00;;;1.33;;
27365;SDS011;14837;57.148;-2.144;2022-12-16T00:35:53;2.65;;;1.20;;
27365;SDS011;14837;57.148;-2.144;2022-12-16T00:38:20;5.88;;;1.55;;
27365;SDS011;14837;57.148;-2.144;2022-12-16T00:40:47;3.97;;;2.00;;
27365;SDS011;14837;57.148;-2.144;2022-12-16T00:43:13;2.42;;;0.98;;
27365;SDS011;14837;57.148;-2.144;2022-12-16T00:45:40;1.90;;;0.75;;
27365;SDS011;14837;57.148;-2.144;2022-12-16T00:48:07;3.42;;;0.90;;
27365;SDS011;14837;57.148;-2.144;2022-12-16T00:50:33;3.50;;;1.20;;
27365;SDS011;14837;57.148;-2.144;2022-12-16T00:53:00;3.83;;;1.08;;
27365;SDS011;14837;57.148;-2.144;2022-12-16T00:55:27;3.78;;;1.63;;
27365;SDS011;14837;57.148;-2.144;2022-12-16T00:57:53;3.10;;;1.73;;
27365;SDS011;14837;57.148;-2.144;2022-12-16T01:00:20;1.85;;;1.10;;
27365;SDS011;14837;57.148;-2.144;2022-12-16T01:02:48;1.63;;;0.90;;
27365;SDS011;14837;57.148;-2.144;2022-12-16T01:05:16;3.20;;;1.38;;
27365;SDS011;14837;57.148;-2.144;2022-12-16T01:07:43;2.08;;;1.48;;
27365;SDS011;14837;57.148;-2.144;2022-12-16T01:10:09;1.85;;;1.30;;
27365;SDS011;14837;57.148;-2.144;2022-12-16T01:12:36;1.92;;;1.17;;
27365;SDS011;14837;57.148;-2.144;2022-12-16T01:15:03;3.50;;;1.42;;
27365;SDS011;14837;57.148;-2.144;2022-12-16T01:17:30;6.22;;;1.25;;
27365;SDS011;14837;57.148;-2.144;2022-12-16T01:19:57;2.90;;;0.95;;
27365;SDS011;14837;57.148;-2.144;2022-12-16T01:22:23;2.30;;;1.02;;
27365;SDS011;14837;57.148;-2.144;2022-12-16T01:24:50;3.92;;;1.75;;
27365;SDS011;14837;57.148;-2.144;2022-12-16T01:27:16;3.60;;;1.33;;
27365;SDS011;14837;57.148;-2.144;2022-12-16T01:29:43;4.22;;;1.75;;
27365;SDS011;14837;57.148;-2.144;2022-12-16T01:32:12;2.95;;;1.58;;
27365;SDS011;14837;57.148;-2.144;2022-12-16T01:34:39;1.63;;;1.13;;
27365;SDS011;14837;57.148;-2.144;2022-12-16T01:37:08;1.15;;;0.80;;
27365;SDS011;14837;57.148;-2.144;2022-12-16T01:39:36;0.70;;;0.63;;
27365;SDS011;14837;57.148;-2.144;2022-12-16T01:42:03;1.15;;;0.70;;
27365;SDS011;14837;57.148;-2.144;2022-12-16T01:44:29;3.80;;;1.25;;
27365;SDS011;14837;57.148;-2.144;2022-12-16T01:46:57;3.55;;;1.40;;
27365;SDS011;14837;57.148;-2.144;2022-12-16T01:51:52;2.85;;;1.20;;
27365;SDS011;14837;57.148;-2.144;2022-12-16T01:54:31;3.85;;;1.20;;
27365;SDS011;14837;57.148;-2.144;2022-12-16T01:57:01;3.42;;;1.08;;
27365;SDS011;14837;57.148;-2.144;2022-12-16T01:59:29;1.35;;;0.80;;
27365;SDS011;14837;57.148;-2.144;2022-12-16T02:01:57;2.30;;;1.10;;
27365;SDS011;14837;57.148;-2.144;2022-12-16T02:04:25;5.03;;;1.10;;
27365;SDS011;14837;57.148;-2.144;2022-12-16T02:06:51;2.30;;;1.27;;
27365;SDS011;14837;57.148;-2.144;2022-12-16T02:09:19;3.17;;;1.50;;
27365;SDS011;14837;57.148;-2.144;2022-12-16T02:15:33;3.78;;;1.20;;
27365;SDS011;14837;57.148;-2.144;2022-12-16T02:17:29;5.25;;;1.63;;
27365;SDS011;14837;57.148;-2.144;2022-12-16T02:32:28;3.25;;;1.70;;
27365;SDS011;14837;57.148;-2.144;2022-12-16T02:39:52;4.55;;;1.30;;
27365;SDS011;14837;57.148;-2.144;2022-12-16T02:42:29;3.20;;;1.25;;
27365;SDS011;14837;57.148;-2.144;2022-12-16T02:45:03;3.33;;;1.30;;
27365;SDS011;14837;57.148;-2.144;2022-12-16T02:47:31;1.83;;;1.00;;
27365;SDS011;14837;57.148;-2.144;2022-12-16T02:49:58;1.88;;;1.20;;
27365;SDS011;14837;57.148;-2.144;2022-12-16T02:52:28;2.55;;;0.93;;
27365;SDS011;14837;57.148;-2.144;2022-12-16T02:54:57;1.58;;;0.85;;
27365;SDS011;14837;57.148;-2.144;2022-12-16T02:57:29;3.58;;;0.80;;
27365;SDS011;14837;57.148;-2.144;2022-12-16T03:00:04;2.15;;;1.00;;
27365;SDS011;14837;57.148;-2.144;2022-12-16T03:02:35;3.40;;;1.17;;
27365;SDS011;14837;57.148;-2.144;2022-12-16T03:05:19;1.98;;;1.10;;
27365;SDS011;14837;57.148;-2.144;2022-12-16T03:07:46;3.72;;;1.00;;
27365;SDS011;14837;57.148;-2.144;2022-12-16T03:10:16;2.30;;;1.05;;
27365;SDS011;14837;57.148;-2.144;2022-12-16T03:12:44;1.92;;;0.80;;
27365;SDS011;14837;57.148;-2.144;2022-12-16T03:15:12;1.92;;;1.10;;
27365;SDS011;14837;57.148;-2.144;2022-12-16T03:17:39;1.40;;;0.80;;
27365;SDS011;14837;57.148;-2.144;2022-12-16T03:22:33;4.28;;;1.58;;
27365;SDS011;14837;57.148;-2.144;2022-12-16T03:25:01;3.53;;;1.00;;
27365;SDS011;14837;57.148;-2.144;2022-12-16T03:27:32;2.78;;;1.08;;
27365;SDS011;14837;57.148;-2.144;2022-12-16T03:32:41;3.05;;;1.33;;
27365;SDS011;14837;57.148;-2.144;2022-12-16T03:37:38;2.60;;;1.20;;
27365;SDS011;14837;57.148;-2.144;2022-12-16T03:40:06;1.40;;;0.82;;
27365;SDS011;14837;57.148;-2.144;2022-12-16T03:42:33;2.38;;;1.00;;
27365;SDS011;14837;57.148;-2.144;2022-12-16T03:45:02;1.15;;;0.70;;
27365;SDS011;14837;57.148;-2.144;2022-12-16T03:47:28;2.47;;;1.00;;
27365;SDS011;14837;57.148;-2.144;2022-12-16T03:49:55;2.47;;;0.85;;
27365;SDS011;14837;57.148;-2.144;2022-12-16T03:52:21;2.78;;;1.00;;
27365;SDS011;14837;57.148;-2.144;2022-12-16T03:54:48;1.00;;;0.80;;
27365;SDS011;14837;57.148;-2.144;2022-12-16T03:57:14;2.08;;;1.00;;
27365;SDS011;14837;57.148;-2.144;2022-12-16T03:59:41;3.00;;;0.90;;
27365;SDS011;14837;57.148;-2.144;2022-12-16T04:02:08;2.58;;;1.08;;
27365;SDS011;14837;57.148;-2.144;2022-12-16T04:04:34;2.88;;;1.20;;
27365;SDS011;14837;57.148;-2.144;2022-12-16T04:07:01;3.95;;;0.98;;
27365;SDS011;14837;57.148;-2.144;2022-12-16T04:09:46;3.08;;;0.80;;
27365;SDS011;14837;57.148;-2.144;2022-12-16T04:12:13;1.00;;;0.70;;
27365;SDS011;14837;57.148;-2.144;2022-12-16T04:14:58;3.20;;;0.98;;
27365;SDS011;14837;57.148;-2.144;2022-12-16T04:17:43;0.80;;;0.70;;
27365;SDS011;14837;57.148;-2.144;2022-12-16T04:20:30;2.45;;;0.82;;
27365;SDS011;14837;57.148;-2.144;2022-12-16T04:23:20;2.45;;;0.93;;
27365;SDS011;14837;57.148;-2.144;2022-12-16T04:26:06;4.05;;;1.20;;
27365;SDS011;14837;57.148;-2.144;2022-12-16T04:28:33;3.20;;;1.00;;
27365;SDS011;14837;57.148;-2.144;2022-12-16T04:30:59;3.67;;;1.38;;
27365;SDS011;14837;57.148;-2.144;2022-12-16T04:33:26;3.75;;;1.25;;
27365;SDS011;14837;57.148;-2.144;2022-12-16T04:36:11;0.98;;;0.95;;
27365;SDS011;14837;57.148;-2.144;2022-12-16T04:38:56;0.82;;;0.82;;
27365;SDS011;14837;57.148;-2.144;2022-12-16T04:41:42;6.75;;;1.15;;
27365;SDS011;14837;57.148;-2.144;2022-12-16T04:44:27;4.53;;;1.42;;
27365;SDS011;14837;57.148;-2.144;2022-12-16T04:47:12;2.60;;;1.10;;
27365;SDS011;14837;57.148;-2.144;2022-12-16T04:49:57;1.98;;;1.02;;
27365;SDS011;14837;57.148;-2.144;2022-12-16T04:52:42;1.23;;;0.88;;
27365;SDS011;14837;57.148;-2.144;2022-12-16T04:55:27;2.42;;;1.38;;
27365;SDS011;14837;57.148;-2.144;2022-12-16T04:58:12;2.40;;;2.15;;
27365;SDS011;14837;57.148;-2.144;2022-12-16T05:00:57;4.78;;;1.27;;
27365;SDS011;14837;57.148;-2.144;2022-12-16T05:03:43;1.52;;;1.00;;
27365;SDS011;14837;57.148;-2.144;2022-12-16T05:06:28;3.53;;;0.82;;
27365;SDS011;14837;57.148;-2.144;2022-12-16T05:09:13;3.60;;;1.45;;
27365;SDS011;14837;57.148;-2.144;2022-12-16T05:11:58;0.77;;;0.73;;
27365;SDS011;14837;57.148;-2.144;2022-12-16T05:14:43;1.92;;;1.08;;
27365;SDS011;14837;57.148;-2.144;2022-12-16T05:17:28;3.72;;;1.00;;
27365;SDS011;14837;57.148;-2.144;2022-12-16T05:20:14;5.93;;;1.25;;
27365;SDS011;14837;57.148;-2.144;2022-12-16T05:22:59;3.63;;;0.80;;
27365;SDS011;14837;57.148;-2.144;2022-12-16T05:25:44;1.98;;;1.05;;
27365;SDS011;14837;57.148;-2.144;2022-12-16T05:28:29;3.90;;;0.88;;
27365;SDS011;14837;57.148;-2.144;2022-12-16T05:31:15;1.33;;;0.90;;
27365;SDS011;14837;57.148;-2.144;2022-12-16T05:34:00;2.35;;;1.40;;
27365;SDS011;14837;57.148;-2.144;2022-12-16T05:36:45;0.98;;;0.75;;
27365;SDS011;14837;57.148;-2.144;2022-12-16T05:39:30;0.93;;;0.70;;
27365;SDS011;14837;57.148;-2.144;2022-12-16T05:42:15;1.27;;;0.90;;
27365;SDS011;14837;57.148;-2.144;2022-12-16T05:45:00;1.77;;;1.65;;
27365;SDS011;14837;57.148;-2.144;2022-12-16T05:47:48;4.00;;;1.05;;
27365;SDS011;14837;57.148;-2.144;2022-12-16T05:50:34;1.70;;;0.82;;
27365;SDS011;14837;57.148;-2.144;2022-12-16T05:53:21;1.63;;;1.02;;
27365;SDS011;14837;57.148;-2.144;2022-12-16T05:56:05;1.58;;;1.02;;
27365;SDS011;14837;57.148;-2.144;2022-12-16T05:58:51;2.40;;;1.00;;
27365;SDS011;14837;57.148;-2.144;2022-12-16T06:01:36;1.58;;;1.08;;
27365;SDS011;14837;57.148;-2.144;2022-12-16T06:04:21;3.17;;;0.90;;
27365;SDS011;14837;57.148;-2.144;2022-12-16T06:07:06;2.90;;;0.90;;
27365;SDS011;14837;57.148;-2.144;2022-12-16T06:09:51;3.30;;;1.30;;
27365;SDS011;14837;57.148;-2.144;2022-12-16T06:12:36;2.30;;;1.00;;
27365;SDS011;14837;57.148;-2.144;2022-12-16T06:15:22;2.20;;;0.98;;
27365;SDS011;14837;57.148;-2.144;2022-12-16T06:18:07;4.50;;;1.70;;
27365;SDS011;14837;57.148;-2.144;2022-12-16T06:20:52;0.70;;;0.65;;
27365;SDS011;14837;57.148;-2.144;2022-12-16T06:23:37;2.00;;;0.90;;
27365;SDS011;14837;57.148;-2.144;2022-12-16T06:26:22;5.05;;;1.02;;
27365;SDS011;14837;57.148;-2.144;2022-12-16T06:29:08;2.03;;;1.17;;
27365;SDS011;14837;57.148;-2.144;2022-12-16T06:31:53;1.95;;;1.00;;
27365;SDS011;14837;57.148;-2.144;2022-12-16T06:34:38;3.58;;;1.13;;
27365;SDS011;14837;57.148;-2.144;2022-12-16T06:37:23;1.48;;;0.90;;
27365;SDS011;14837;57.148;-2.144;2022-12-16T06:40:09;1.85;;;1.13;;
27365;SDS011;14837;57.148;-2.144;2022-12-16T06:42:54;1.00;;;0.80;;
27365;SDS011;14837;57.148;-2.144;2022-12-16T06:45:39;3.95;;;2.25;;
27365;SDS011;14837;57.148;-2.144;2022-12-16T06:48:24;1.52;;;1.00;;
27365;SDS011;14837;57.148;-2.144;2022-12-16T06:51:09;1.75;;;0.90;;
27365;SDS011;14837;57.148;-2.144;2022-12-16T06:53:54;1.90;;;0.75;;
27365;SDS011;14837;57.148;-2.144;2022-12-16T06:56:40;1.85;;;0.90;;
27365;SDS011;14837;57.148;-2.144;2022-12-16T06:59:25;2.30;;;0.90;;
27365;SDS011;14837;57.148;-2.144;2022-12-16T07:02:15;0.90;;;0.70;;
27365;SDS011;14837;57.148;-2.144;2022-12-16T07:05:00;2.50;;;1.77;;
27365;SDS011;14837;57.148;-2.144;2022-12-16T07:07:49;4.10;;;1.08;;
27365;SDS011;14837;57.148;-2.144;2022-12-16T07:10:34;4.38;;;1.08;;
27365;SDS011;14837;57.148;-2.144;2022-12-16T07:13:22;2.17;;;0.77;;
27365;SDS011;14837;57.148;-2.144;2022-12-16T07:16:07;3.70;;;1.10;;
27365;SDS011;14837;57.148;-2.144;2022-12-16T07:18:52;4.72;;;1.10;;
27365;SDS011;14837;57.148;-2.144;2022-12-16T07:21:38;1.48;;;1.05;;
27365;SDS011;14837;57.148;-2.144;2022-12-16T07:24:23;5.28;;;1.33;;
27365;SDS011;14837;57.148;-2.144;2022-12-16T07:27:08;5.22;;;0.80;;
27365;SDS011;14837;57.148;-2.144;2022-12-16T07:29:53;5.35;;;1.00;;
27365;SDS011;14837;57.148;-2.144;2022-12-16T07:32:38;5.60;;;1.30;;
27365;SDS011;14837;57.148;-2.144;2022-12-16T07:35:23;1.95;;;1.00;;
27365;SDS011;14837;57.148;-2.144;2022-12-16T07:38:09;1.30;;;1.00;;
27365;SDS011;14837;57.148;-2.144;2022-12-16T07:40:54;5.80;;;1.40;;
27365;SDS011;14837;57.148;-2.144;2022-12-16T07:43:39;2.00;;;1.38;;
27365;SDS011;14837;57.148;-2.144;2022-12-16T07:46:24;3.10;;;0.90;;
27365;SDS011;14837;57.148;-2.144;2022-12-16T07:49:10;1.27;;;1.05;;
27365;SDS011;14837;57.148;-2.144;2022-12-16T07:51:55;2.42;;;1.02;;
27365;SDS011;14837;57.148;-2.144;2022-12-16T07:54:40;2.10;;;0.85;;
27365;SDS011;14837;57.148;-2.144;2022-12-16T07:57:26;5.63;;;1.40;;
27365;SDS011;14837;57.148;-2.144;2022-12-16T08:00:11;4.22;;;1.38;;
27365;SDS011;14837;57.148;-2.144;2022-12-16T08:02:56;2.92;;;1.60;;
27365;SDS011;14837;57.148;-2.144;2022-12-16T08:05:41;4.05;;;2.13;;
27365;SDS011;14837;57.148;-2.144;2022-12-16T08:08:27;4.60;;;2.67;;
27365;SDS011;14837;57.148;-2.144;2022-12-16T08:11:12;3.72;;;2.35;;
27365;SDS011;14837;57.148;-2.144;2022-12-16T08:13:57;5.90;;;2.60;;
27365;SDS011;14837;57.148;-2.144;2022-12-16T08:16:42;4.47;;;2.53;;
27365;SDS011;14837;57.148;-2.144;2022-12-16T08:19:27;7.78;;;2.15;;
27365;SDS011;14837;57.148;-2.144;2022-12-16T08:22:12;3.25;;;1.63;;
27365;SDS011;14837;57.148;-2.144;2022-12-16T08:24:57;8.30;;;2.75;;
27365;SDS011;14837;57.148;-2.144;2022-12-16T08:27:42;17.55;;;7.72;;
27365;SDS011;14837;57.148;-2.144;2022-12-16T08:30:27;16.20;;;8.20;;
27365;SDS011;14837;57.148;-2.144;2022-12-16T08:33:12;12.10;;;6.07;;
27365;SDS011;14837;57.148;-2.144;2022-12-16T08:35:58;7.45;;;3.40;;
27365;SDS011;14837;57.148;-2.144;2022-12-16T08:38:43;8.48;;;4.93;;
27365;SDS011;14837;57.148;-2.144;2022-12-16T08:41:28;8.98;;;4.32;;
27365;SDS011;14837;57.148;-2.144;2022-12-16T08:44:13;5.47;;;2.10;;
27365;SDS011;14837;57.148;-2.144;2022-12-16T08:46:58;7.55;;;3.22;;
27365;SDS011;14837;57.148;-2.144;2022-12-16T08:49:43;4.63;;;1.77;;
27365;SDS011;14837;57.148;-2.144;2022-12-16T08:52:28;2.65;;;1.58;;
27365;SDS011;14837;57.148;-2.144;2022-12-16T08:55:13;4.65;;;2.10;;
27365;SDS011;14837;57.148;-2.144;2022-12-16T08:57:59;4.95;;;2.40;;
27365;SDS011;14837;57.148;-2.144;2022-12-16T09:00:44;6.38;;;3.42;;
27365;SDS011;14837;57.148;-2.144;2022-12-16T09:03:33;10.05;;;2.97;;
27365;SDS011;14837;57.148;-2.144;2022-12-16T09:06:18;4.55;;;2.55;;
27365;SDS011;14837;57.148;-2.144;2022-12-16T09:09:06;1.70;;;1.48;;
27365;SDS011;14837;57.148;-2.144;2022-12-16T09:11:51;5.28;;;1.60;;
27365;SDS011;14837;57.148;-2.144;2022-12-16T09:14:36;2.58;;;1.38;;
27365;SDS011;14837;57.148;-2.144;2022-12-16T09:17:21;3.15;;;1.52;;
27365;SDS011;14837;57.148;-2.144;2022-12-16T09:20:06;4.93;;;1.75;;
27365;SDS011;14837;57.148;-2.144;2022-12-16T09:22:51;6.38;;;4.00;;
27365;SDS011;14837;57.148;-2.144;2022-12-16T09:25:37;7.63;;;5.60;;
27365;SDS011;14837;57.148;-2.144;2022-12-16T09:28:22;12.68;;;7.97;;
27365;SDS011;14837;57.148;-2.144;2022-12-16T09:31:07;8.25;;;6.60;;
27365;SDS011;14837;57.148;-2.144;2022-12-16T09:33:52;6.88;;;5.18;;
27365;SDS011;14837;57.148;-2.144;2022-12-16T09:36:37;4.20;;;3.55;;
27365;SDS011;14837;57.148;-2.144;2022-12-16T09:39:22;4.13;;;2.15;;
27365;SDS011;14837;57.148;-2.144;2022-12-16T09:47:59;3.60;;;3.22;;
27365;SDS011;14837;57.148;-2.144;2022-12-16T09:50:47;3.22;;;1.70;;
27365;SDS011;14837;57.148;-2.144;2022-12-16T09:53:34;2.58;;;1.73;;
27365;SDS011;14837;57.148;-2.144;2022-12-16T09:56:23;3.55;;;2.33;;
27365;SDS011;14837;57.148;-2.144;2022-12-16T09:59:10;2.75;;;2.25;;
27365;SDS011;14837;57.148;-2.144;2022-12-16T10:01:56;2.55;;;1.30;;
27365;SDS011;14837;57.148;-2.144;2022-12-16T10:04:42;3.50;;;1.50;;
27365;SDS011;14837;57.148;-2.144;2022-12-16T10:07:29;4.70;;;1.80;;
27365;SDS011;14837;57.148;-2.144;2022-12-16T10:10:16;5.55;;;1.67;;
27365;SDS011;14837;57.148;-2.144;2022-12-16T10:13:08;3.53;;;1.50;;
27365;SDS011;14837;57.148;-2.144;2022-12-16T10:27:44;4.05;;;1.65;;
27365;SDS011;14837;57.148;-2.144;2022-12-16T10:30:31;2.88;;;1.65;;
27365;SDS011;14837;57.148;-2.144;2022-12-16T10:33:17;1.95;;;1.23;;
27365;SDS011;14837;57.148;-2.144;2022-12-16T10:36:03;2.47;;;1.10;;
27365;SDS011;14837;57.148;-2.144;2022-12-16T10:38:56;3.08;;;1.42;;
27365;SDS011;14837;57.148;-2.144;2022-12-16T10:41:44;3.33;;;1.95;;
27365;SDS011;14837;57.148;-2.144;2022-12-16T10:44:32;2.85;;;1.10;;
27365;SDS011;14837;57.148;-2.144;2022-12-16T10:47:20;1.13;;;0.90;;
27365;SDS011;14837;57.148;-2.144;2022-12-16T10:50:05;3.00;;;1.42;;
27365;SDS011;14837;57.148;-2.144;2022-12-16T10:52:53;3.08;;;1.30;;
27365;SDS011;14837;57.148;-2.144;2022-12-16T10:58:50;1.10;;;0.93;;
27365;SDS011;14837;57.148;-2.144;2022-12-16T11:01:36;2.65;;;2.45;;
27365;SDS011;14837;57.148;-2.144;2022-12-16T11:04:34;2.63;;;1.10;;
27365;SDS011;14837;57.148;-2.144;2022-12-16T11:07:32;1.17;;;0.82;;
27365;SDS011;14837;57.148;-2.144;2022-12-16T11:16:05;2.65;;;1.08;;
27365;SDS011;14837;57.148;-2.144;2022-12-16T11:18:51;2.28;;;1.05;;
27365;SDS011;14837;57.148;-2.144;2022-12-16T11:21:36;3.83;;;2.00;;
27365;SDS011;14837;57.148;-2.144;2022-12-16T11:24:21;3.40;;;1.67;;
27365;SDS011;14837;57.148;-2.144;2022-12-16T11:27:20;4.45;;;0.90;;
27365;SDS011;14837;57.148;-2.144;2022-12-16T11:30:16;2.63;;;1.30;;
27365;SDS011;14837;57.148;-2.144;2022-12-16T11:33:05;1.80;;;1.17;;
27365;SDS011;14837;57.148;-2.144;2022-12-16T11:35:55;6.05;;;3.55;;
27365;SDS011;14837;57.148;-2.144;2022-12-16T11:38:46;4.18;;;3.53;;
27365;SDS011;14837;57.148;-2.144;2022-12-16T11:41:35;11.20;;;7.20;;
27365;SDS011;14837;57.148;-2.144;2022-12-16T11:47:30;11.20;;;3.00;;
27365;SDS011;14837;57.148;-2.144;2022-12-16T11:50:18;4.15;;;2.22;;
27365;SDS011;14837;57.148;-2.144;2022-12-16T11:53:05;5.47;;;2.35;;
27365;SDS011;14837;57.148;-2.144;2022-12-16T11:55:57;3.83;;;2.50;;
27365;SDS011;14837;57.148;-2.144;2022-12-16T11:58:50;2.20;;;1.77;;
27365;SDS011;14837;57.148;-2.144;2022-12-16T12:01:49;3.57;;;1.53;;
27365;SDS011;14837;57.148;-2.144;2022-12-16T12:04:35;5.13;;;1.73;;
27365;SDS011;14837;57.148;-2.144;2022-12-16T12:10:32;2.92;;;1.48;;
27365;SDS011;14837;57.148;-2.144;2022-12-16T12:14:12;3.13;;;1.67;;
27365;SDS011;14837;57.148;-2.144;2022-12-16T12:16:33;3.47;;;2.28;;
27365;SDS011;14837;57.148;-2.144;2022-12-16T12:19:29;4.22;;;2.13;;
27365;SDS011;14837;57.148;-2.144;2022-12-16T12:22:24;3.65;;;2.63;;
27365;SDS011;14837;57.148;-2.144;2022-12-16T12:25:15;3.95;;;3.08;;
27365;SDS011;14837;57.148;-2.144;2022-12-16T12:39:55;2.95;;;1.70;;
27365;SDS011;14837;57.148;-2.144;2022-12-16T12:42:44;3.13;;;1.40;;
27365;SDS011;14837;57.148;-2.144;2022-12-16T12:48:45;1.27;;;0.90;;
27365;SDS011;14837;57.148;-2.144;2022-12-16T12:51:30;1.13;;;0.80;;
27365;SDS011;14837;57.148;-2.144;2022-12-16T12:54:20;2.88;;;0.90;;
27365;SDS011;14837;57.148;-2.144;2022-12-16T12:57:07;1.60;;;0.52;;
27365;SDS011;14837;57.148;-2.144;2022-12-16T13:00:05;1.15;;;0.85;;
27365;SDS011;14837;57.148;-2.144;2022-12-16T13:05:39;2.75;;;1.10;;
27365;SDS011;14837;57.148;-2.144;2022-12-16T13:11:15;3.85;;;2.20;;
27365;SDS011;14837;57.148;-2.144;2022-12-16T13:14:01;2.00;;;1.80;;
27365;SDS011;14837;57.148;-2.144;2022-12-16T13:19:42;2.90;;;1.20;;
27365;SDS011;14837;57.148;-2.144;2022-12-16T13:22:31;1.92;;;1.13;;
27365;SDS011;14837;57.148;-2.144;2022-12-16T13:25:33;1.55;;;0.73;;
27365;SDS011;14837;57.148;-2.144;2022-12-16T13:28:31;4.70;;;1.25;;
27365;SDS011;14837;57.148;-2.144;2022-12-16T13:31:16;2.00;;;1.38;;
27365;SDS011;14837;57.148;-2.144;2022-12-16T13:34:03;1.20;;;0.80;;
27365;SDS011;14837;57.148;-2.144;2022-12-16T13:36:53;2.08;;;1.40;;
27365;SDS011;14837;57.148;-2.144;2022-12-16T13:40:02;3.03;;;1.30;;
27365;SDS011;14837;57.148;-2.144;2022-12-16T13:42:49;3.92;;;1.30;;
27365;SDS011;14837;57.148;-2.144;2022-12-16T13:45:35;2.22;;;1.25;;
27365;SDS011;14837;57.148;-2.144;2022-12-16T13:48:39;5.30;;;1.95;;
27365;SDS011;14837;57.148;-2.144;2022-12-16T13:54:29;1.85;;;1.27;;
27365;SDS011;14837;57.148;-2.144;2022-12-16T13:57:14;2.83;;;1.77;;
27365;SDS011;14837;57.148;-2.144;2022-12-16T14:00:02;3.05;;;1.70;;
27365;SDS011;14837;57.148;-2.144;2022-12-16T14:02:47;4.40;;;1.80;;
27365;SDS011;14837;57.148;-2.144;2022-12-16T14:05:35;4.07;;;1.45;;
27365;SDS011;14837;57.148;-2.144;2022-12-16T14:08:21;4.53;;;2.25;;
27365;SDS011;14837;57.148;-2.144;2022-12-16T14:11:13;4.65;;;2.33;;
27365;SDS011;14837;57.148;-2.144;2022-12-16T14:16:51;5.28;;;3.20;;
27365;SDS011;14837;57.148;-2.144;2022-12-16T14:25:32;8.05;;;4.32;;
27365;SDS011;14837;57.148;-2.144;2022-12-16T14:31:37;5.00;;;2.75;;
27365;SDS011;14837;57.148;-2.144;2022-12-16T14:34:22;5.50;;;3.45;;
27365;SDS011;14837;57.148;-2.144;2022-12-16T14:37:19;3.17;;;2.40;;
27365;SDS011;14837;57.148;-2.144;2022-12-16T14:40:27;3.92;;;2.78;;
27365;SDS011;14837;57.148;-2.144;2022-12-16T14:43:11;5.82;;;2.85;;
27365;SDS011;14837;57.148;-2.144;2022-12-16T14:45:57;6.35;;;3.25;;
27365;SDS011;14837;57.148;-2.144;2022-12-16T14:48:46;9.20;;;3.53;;
27365;SDS011;14837;57.148;-2.144;2022-12-16T14:51:36;4.70;;;3.05;;
27365;SDS011;14837;57.148;-2.144;2022-12-16T14:57:19;4.47;;;2.83;;
27365;SDS011;14837;57.148;-2.144;2022-12-16T15:00:10;3.22;;;1.98;;
27365;SDS011;14837;57.148;-2.144;2022-12-16T15:05:47;3.38;;;2.25;;
27365;SDS011;14837;57.148;-2.144;2022-12-16T15:08:36;3.72;;;2.17;;
27365;SDS011;14837;57.148;-2.144;2022-12-16T15:11:23;6.47;;;2.20;;
27365;SDS011;14837;57.148;-2.144;2022-12-16T15:14:11;1.77;;;1.33;;
27365;SDS011;14837;57.148;-2.144;2022-12-16T15:16:58;2.08;;;1.52;;
27365;SDS011;14837;57.148;-2.144;2022-12-16T15:19:45;5.30;;;1.80;;
27365;SDS011;14837;57.148;-2.144;2022-12-16T15:22:33;2.83;;;2.40;;
27365;SDS011;14837;57.148;-2.144;2022-12-16T15:25:20;5.60;;;4.35;;
27365;SDS011;14837;57.148;-2.144;2022-12-16T15:28:20;7.63;;;6.38;;
27365;SDS011;14837;57.148;-2.144;2022-12-16T15:31:21;10.55;;;6.93;;
27365;SDS011;14837;57.148;-2.144;2022-12-16T15:40:00;10.70;;;8.32;;
27365;SDS011;14837;57.148;-2.144;2022-12-16T15:42:48;9.80;;;8.77;;
27365;SDS011;14837;57.148;-2.144;2022-12-16T15:45:34;12.07;;;7.47;;
27365;SDS011;14837;57.148;-2.144;2022-12-16T15:48:26;8.10;;;5.95;;
27365;SDS011;14837;57.148;-2.144;2022-12-16T15:51:23;6.72;;;3.95;;
27365;SDS011;14837;57.148;-2.144;2022-12-16T15:54:19;7.97;;;4.70;;
27365;SDS011;14837;57.148;-2.144;2022-12-16T16:00:16;4.88;;;3.50;;
27365;SDS011;14837;57.148;-2.144;2022-12-16T16:03:01;9.05;;;5.47;;
27365;SDS011;14837;57.148;-2.144;2022-12-16T16:05:47;8.93;;;6.20;;
27365;SDS011;14837;57.148;-2.144;2022-12-16T16:08:31;9.05;;;7.05;;
27365;SDS011;14837;57.148;-2.144;2022-12-16T16:11:17;7.25;;;6.10;;
27365;SDS011;14837;57.148;-2.144;2022-12-16T16:14:02;12.70;;;8.40;;
27365;SDS011;14837;57.148;-2.144;2022-12-16T16:16:47;11.30;;;8.63;;
27365;SDS011;14837;57.148;-2.144;2022-12-16T16:19:32;10.60;;;8.52;;
27365;SDS011;14837;57.148;-2.144;2022-12-16T16:22:17;12.13;;;8.48;;
27365;SDS011;14837;57.148;-2.144;2022-12-16T16:25:02;13.15;;;8.65;;
27365;SDS011;14837;57.148;-2.144;2022-12-16T16:27:48;7.25;;;5.72;;
27365;SDS011;14837;57.148;-2.144;2022-12-16T16:30:33;9.00;;;6.18;;
27365;SDS011;14837;57.148;-2.144;2022-12-16T16:33:18;7.20;;;5.63;;
27365;SDS011;14837;57.148;-2.144;2022-12-16T16:36:12;7.13;;;5.82;;
27365;SDS011;14837;57.148;-2.144;2022-12-16T16:38:57;8.98;;;6.75;;
27365;SDS011;14837;57.148;-2.144;2022-12-16T16:41:42;10.02;;;5.25;;
27365;SDS011;14837;57.148;-2.144;2022-12-16T16:44:27;7.90;;;5.63;;
27365;SDS011;14837;57.148;-2.144;2022-12-16T16:47:14;11.90;;;7.35;;
27365;SDS011;14837;57.148;-2.144;2022-12-16T16:50:00;12.60;;;7.97;;
27365;SDS011;14837;57.148;-2.144;2022-12-16T16:52:45;9.98;;;6.50;;
27365;SDS011;14837;57.148;-2.144;2022-12-16T16:55:30;16.00;;;8.85;;
27365;SDS011;14837;57.148;-2.144;2022-12-16T16:58:19;12.82;;;6.90;;
27365;SDS011;14837;57.148;-2.144;2022-12-16T17:01:09;10.73;;;7.18;;
27365;SDS011;14837;57.148;-2.144;2022-12-16T17:03:56;13.43;;;7.15;;
27365;SDS011;14837;57.148;-2.144;2022-12-16T17:06:41;9.23;;;7.10;;
27365;SDS011;14837;57.148;-2.144;2022-12-16T17:09:26;11.43;;;8.07;;
27365;SDS011;14837;57.148;-2.144;2022-12-16T17:12:18;8.38;;;7.10;;
27365;SDS011;14837;57.148;-2.144;2022-12-16T17:15:12;7.78;;;6.85;;
27365;SDS011;14837;57.148;-2.144;2022-12-16T17:17:57;6.50;;;5.50;;
27365;SDS011;14837;57.148;-2.144;2022-12-16T17:20:43;8.40;;;6.45;;
27365;SDS011;14837;57.148;-2.144;2022-12-16T17:23:28;15.40;;;9.48;;
27365;SDS011;14837;57.148;-2.144;2022-12-16T17:26:13;13.10;;;9.73;;
27365;SDS011;14837;57.148;-2.144;2022-12-16T17:28:58;7.10;;;5.63;;
27365;SDS011;14837;57.148;-2.144;2022-12-16T17:31:44;5.70;;;4.00;;
27365;SDS011;14837;57.148;-2.144;2022-12-16T17:34:29;4.90;;;3.58;;
27365;SDS011;14837;57.148;-2.144;2022-12-16T17:37:18;3.85;;;2.50;;
27365;SDS011;14837;57.148;-2.144;2022-12-16T17:40:03;4.07;;;3.30;;
27365;SDS011;14837;57.148;-2.144;2022-12-16T17:42:59;5.88;;;3.75;;
27365;SDS011;14837;57.148;-2.144;2022-12-16T17:45:53;6.30;;;5.18;;
27365;SDS011;14837;57.148;-2.144;2022-12-16T17:48:39;5.90;;;3.83;;
27365;SDS011;14837;57.148;-2.144;2022-12-16T17:51:24;7.85;;;4.45;;
27365;SDS011;14837;57.148;-2.144;2022-12-16T17:54:09;5.60;;;4.20;;
27365;SDS011;14837;57.148;-2.144;2022-12-16T17:56:55;3.70;;;2.92;;
27365;SDS011;14837;57.148;-2.144;2022-12-16T17:59:40;4.72;;;3.72;;